createdAt,value
2019-04-29T00:00:54.957Z,6.51
2019-04-29T00:03:26.248Z,6.48
2019-04-29T00:05:57.609Z,6.46
2019-04-29T00:08:28.927Z,6.40
2019-04-29T00:11:00.176Z,6.36
2019-04-29T00:13:31.574Z,6.32
2019-04-29T00:16:21.349Z,6.33
2019-04-29T00:19:11.875Z,6.30
2019-04-29T00:21:43.179Z,6.26
2019-04-29T00:24:14.467Z,6.23
2019-04-29T00:26:45.768Z,6.19
2019-04-29T00:29:17.081Z,6.19
2019-04-29T00:31:48.472Z,6.15
2019-04-29T00:34:19.794Z,6.11
2019-04-29T00:37:16.178Z,6.09
2019-04-29T00:40:15.235Z,6.08
2019-04-29T00:42:52.750Z,6.04
2019-04-29T00:45:24.584Z,6.02
2019-04-29T00:47:55.900Z,6.02
2019-04-29T00:50:27.173Z,6.02
2019-04-29T00:52:58.526Z,6.00
2019-04-29T00:55:31.406Z,5.99
2019-04-29T00:58:02.737Z,6.01
2019-04-29T01:00:38.304Z,5.95
2019-04-29T01:03:09.777Z,5.95
2019-04-29T01:05:41.206Z,5.94
2019-04-29T01:08:12.510Z,5.95
2019-04-29T01:10:43.865Z,5.95
2019-04-29T01:13:15.165Z,5.95
2019-04-29T01:15:46.499Z,5.93
2019-04-29T01:18:18.019Z,5.93
2019-04-29T01:20:49.263Z,5.92
2019-04-29T01:23:20.579Z,5.87
2019-04-29T01:25:55.631Z,5.84
2019-04-29T01:28:35.924Z,5.80
2019-04-29T01:31:12.578Z,5.76
2019-04-29T01:33:43.846Z,5.70
2019-04-29T01:36:43.201Z,5.65
2019-04-29T01:39:16.088Z,5.62
2019-04-29T01:42:11.021Z,5.64
2019-04-29T01:44:42.301Z,5.64
2019-04-29T01:47:13.571Z,5.62
2019-04-29T01:49:44.854Z,5.59
2019-04-29T01:52:16.181Z,5.60
2019-04-29T01:54:47.521Z,5.64
2019-04-29T01:57:18.816Z,5.67
2019-04-29T01:59:50.134Z,5.70
2019-04-29T02:02:21.428Z,5.69
2019-04-29T02:04:52.765Z,5.65
2019-04-29T02:07:24.023Z,5.65
2019-04-29T02:10:03.897Z,5.63
2019-04-29T02:12:35.170Z,5.63
2019-04-29T02:15:07.371Z,5.59
2019-04-29T02:17:38.686Z,5.57
2019-04-29T02:20:10.191Z,5.57
2019-04-29T02:23:03.444Z,5.56
2019-04-29T02:25:38.364Z,5.51
2019-04-29T02:28:09.667Z,5.49
2019-04-29T02:30:47.776Z,5.44
2019-04-29T02:33:19.098Z,5.41
2019-04-29T02:35:50.403Z,5.37
2019-04-29T02:38:46.019Z,5.34
2019-04-29T02:41:24.408Z,5.31
2019-04-29T02:43:57.370Z,5.34
2019-04-29T02:46:28.675Z,5.33
2019-04-29T02:48:59.968Z,5.33
2019-04-29T02:51:49.475Z,5.31
2019-04-29T02:54:20.788Z,5.28
2019-04-29T02:56:59.782Z,5.26
2019-04-29T02:59:35.951Z,5.20
2019-04-29T03:02:22.644Z,5.18
2019-04-29T03:05:27.782Z,5.17
2019-04-29T03:07:59.141Z,5.17
2019-04-29T03:10:30.489Z,5.14
2019-04-29T03:13:01.792Z,5.12
2019-04-29T03:15:35.027Z,5.07
2019-04-29T03:18:06.442Z,5.05
2019-04-29T03:20:52.209Z,5.05
2019-04-29T03:23:24.161Z,5.02
2019-04-29T03:25:55.413Z,5.05
2019-04-29T03:28:26.798Z,5.04
2019-04-29T03:30:58.077Z,5.02
2019-04-29T03:33:29.403Z,4.98
2019-04-29T03:36:00.801Z,4.97
2019-04-29T03:38:32.093Z,4.98
2019-04-29T03:41:03.404Z,5.00
2019-04-29T03:43:34.661Z,5.05
2019-04-29T03:46:05.984Z,5.05
2019-04-29T03:48:37.254Z,5.11
2019-04-29T03:51:08.578Z,5.09
2019-04-29T03:53:42.802Z,5.08
2019-04-29T03:56:14.083Z,5.08
2019-04-29T03:58:45.372Z,5.10
2019-04-29T04:01:24.165Z,5.34
2019-04-29T04:03:59.827Z,5.35
2019-04-29T04:06:51.182Z,5.30
2019-04-29T04:09:24.923Z,5.30
2019-04-29T04:11:56.250Z,5.19
2019-04-29T04:14:27.549Z,5.19
2019-04-29T04:17:15.050Z,5.14
2019-04-29T04:19:47.075Z,5.14
2019-04-29T04:22:18.361Z,5.12
2019-04-29T04:24:52.205Z,5.11
2019-04-29T04:27:23.520Z,5.07
2019-04-29T04:29:54.885Z,5.04
2019-04-29T04:32:26.201Z,5.05
2019-04-29T04:34:57.514Z,5.05
2019-04-29T04:37:28.836Z,5.07
2019-04-29T04:40:00.100Z,5.05
2019-04-29T04:42:31.395Z,5.12
2019-04-29T04:45:02.705Z,5.11
2019-04-29T04:47:33.981Z,5.09
2019-04-29T04:50:05.390Z,5.08
2019-04-29T04:52:36.745Z,5.09
2019-04-29T04:55:08.388Z,5.10
2019-04-29T04:57:39.657Z,5.13
2019-04-29T05:00:20.234Z,5.26
2019-04-29T05:02:51.790Z,5.29
2019-04-29T05:05:23.132Z,5.33
2019-04-29T05:07:54.431Z,5.32
2019-04-29T05:10:25.746Z,5.34
2019-04-29T05:12:56.993Z,5.38
2019-04-29T05:15:28.229Z,5.43
2019-04-29T05:17:59.542Z,5.48
2019-04-29T05:20:30.854Z,5.52
2019-04-29T05:23:02.184Z,5.56
2019-04-29T05:25:34.702Z,5.61
2019-04-29T05:28:06.547Z,5.63
2019-04-29T05:30:37.853Z,5.68
2019-04-29T05:33:09.125Z,5.73
2019-04-29T05:35:50.158Z,5.82
2019-04-29T05:38:25.647Z,5.87
2019-04-29T05:40:57.291Z,5.93
2019-04-29T05:43:38.673Z,5.99
2019-04-29T05:46:21.605Z,6.09
2019-04-29T05:48:52.720Z,6.18
2019-04-29T05:51:49.148Z,6.26
2019-04-29T05:54:20.471Z,6.34
2019-04-29T05:56:51.781Z,6.42
2019-04-29T05:59:23.099Z,6.54
2019-04-29T06:01:54.382Z,6.66
2019-04-29T06:04:28.468Z,6.79
2019-04-29T06:06:58.685Z,6.91
2019-04-29T06:09:30.035Z,6.99
2019-04-29T06:12:01.317Z,7.07
2019-04-29T06:14:32.633Z,7.14
2019-04-29T06:17:07.701Z,7.22
2019-04-29T06:19:39.452Z,7.33
2019-04-29T06:22:09.873Z,7.39
2019-04-29T06:24:42.201Z,7.45
2019-04-29T06:27:13.458Z,7.50
2019-04-29T06:29:44.708Z,7.59
2019-04-29T06:32:20.171Z,7.74
2019-04-29T06:34:50.865Z,7.88
2019-04-29T06:37:22.165Z,8.04
2019-04-29T06:39:53.400Z,8.20
2019-04-29T06:42:24.631Z,8.38
2019-04-29T06:44:55.997Z,8.59
2019-04-29T06:47:27.289Z,8.76
2019-04-29T06:49:58.625Z,8.93
2019-04-29T06:52:29.925Z,9.05
2019-04-29T06:55:01.253Z,9.20
2019-04-29T06:57:32.582Z,9.37
2019-04-29T07:00:04.008Z,9.57
2019-04-29T07:02:35.314Z,9.80
2019-04-29T07:05:07.756Z,10.01
2019-04-29T07:07:39.078Z,10.25
2019-04-29T07:10:10.953Z,10.42
2019-04-29T07:12:42.749Z,10.57
2019-04-29T07:15:15.367Z,10.72
2019-04-29T07:17:46.681Z,10.82
2019-04-29T07:20:17.937Z,10.88
2019-04-29T07:22:49.300Z,11.09
2019-04-29T07:25:20.625Z,11.31
2019-04-29T07:27:51.932Z,11.50
2019-04-29T07:30:23.419Z,11.70
2019-04-29T07:32:54.718Z,11.95
2019-04-29T07:35:26.040Z,12.25
2019-04-29T07:37:57.389Z,12.53
2019-04-29T07:40:28.803Z,12.89
2019-04-29T07:43:02.793Z,13.15
2019-04-29T07:45:52.061Z,13.43
2019-04-29T07:48:23.362Z,13.77
2019-04-29T07:50:54.682Z,14.15
2019-04-29T07:53:35.035Z,14.47
2019-04-29T07:56:01.757Z,14.75
2019-04-29T07:58:32.021Z,15.06
2019-04-29T08:01:03.337Z,15.27
2019-04-29T08:03:34.644Z,15.49
2019-04-29T08:06:05.984Z,15.77
2019-04-29T08:08:37.868Z,16.00
2019-04-29T08:11:09.165Z,16.29
2019-04-29T08:13:45.476Z,16.42
2019-04-29T08:16:18.476Z,16.55
2019-04-29T08:18:53.602Z,16.71
2019-04-29T08:21:22.998Z,16.88
2019-04-29T08:23:54.315Z,17.02
2019-04-29T08:26:25.637Z,17.31
2019-04-29T08:29:00.245Z,17.64
2019-04-29T08:31:29.941Z,17.92
2019-04-29T08:34:01.327Z,18.12
2019-04-29T08:36:32.645Z,18.37
2019-04-29T08:39:08.612Z,18.60
2019-04-29T08:41:37.598Z,18.88
2019-04-29T08:44:25.927Z,18.99
2019-04-29T08:47:13.443Z,18.96
2019-04-29T08:49:44.835Z,19.10
2019-04-29T08:52:16.116Z,19.24
2019-04-29T08:54:50.637Z,19.45
2019-04-29T08:57:20.437Z,19.57
2019-04-29T08:59:51.741Z,19.66
2019-04-29T09:02:34.675Z,19.39
2019-04-29T09:04:56.015Z,19.48
2019-04-29T09:07:27.355Z,19.71
2019-04-29T09:10:01.750Z,19.57
2019-04-29T09:12:31.760Z,19.83
2019-04-29T09:15:03.147Z,20.16
2019-04-29T09:17:34.441Z,20.26
2019-04-29T09:20:07.169Z,20.03
2019-04-29T09:22:41.099Z,20.16
2019-04-29T09:25:31.387Z,19.81
2019-04-29T09:28:07.297Z,19.64
2019-04-29T09:30:39.012Z,19.87
2019-04-29T09:33:13.161Z,20.42
2019-04-29T09:35:43.316Z,20.88
2019-04-29T09:38:14.614Z,20.97
2019-04-29T09:40:54.466Z,21.11
2019-04-29T09:43:47.561Z,21.50
2019-04-29T09:46:30.084Z,21.70
2019-04-29T09:48:58.775Z,22.01
2019-04-29T09:51:30.067Z,22.05
2019-04-29T09:54:01.349Z,21.84
2019-04-29T09:56:34.702Z,21.36
2019-04-29T09:59:23.021Z,21.33
2019-04-29T10:02:26.569Z,21.61
2019-04-29T10:05:13.309Z,21.90
2019-04-29T10:07:44.590Z,21.50
2019-04-29T10:10:15.885Z,21.60
2019-04-29T10:12:47.199Z,21.84
2019-04-29T10:15:20.569Z,21.63
2019-04-29T10:18:16.561Z,21.26
2019-04-29T10:20:50.806Z,21.05
2019-04-29T10:23:22.111Z,20.48
2019-04-29T10:25:53.452Z,20.22
2019-04-29T10:28:24.753Z,20.66
2019-04-29T10:30:56.103Z,21.11
2019-04-29T10:33:27.824Z,21.56
2019-04-29T10:35:59.213Z,21.34
2019-04-29T10:38:30.540Z,20.76
2019-04-29T10:41:14.461Z,20.16
2019-04-29T10:44:09.246Z,19.79
2019-04-29T10:46:56.887Z,19.45
2019-04-29T10:49:34.781Z,19.26
2019-04-29T10:52:05.183Z,19.44
2019-04-29T10:54:36.512Z,20.02
2019-04-29T10:57:10.540Z,20.61
2019-04-29T10:59:45.015Z,20.70
2019-04-29T11:02:49.374Z,20.66
2019-04-29T11:05:37.303Z,20.30
2019-04-29T11:08:26.220Z,20.41
2019-04-29T11:11:02.401Z,20.60
2019-04-29T11:13:31.979Z,21.32
2019-04-29T11:16:03.329Z,21.66
2019-04-29T11:18:34.601Z,21.44
2019-04-29T11:21:08.853Z,20.91
2019-04-29T11:23:50.690Z,20.51
2019-04-29T11:26:37.396Z,20.25
2019-04-29T11:29:09.482Z,19.98
2019-04-29T11:31:41.026Z,20.00
2019-04-29T11:34:19.852Z,20.29
2019-04-29T11:36:51.114Z,20.79
2019-04-29T11:39:22.516Z,21.25
2019-04-29T11:41:54.608Z,21.34
2019-04-29T11:44:27.961Z,21.10
2019-04-29T11:46:59.474Z,20.76
2019-04-29T11:49:42.259Z,20.51
2019-04-29T11:52:13.543Z,20.39
2019-04-29T11:54:44.822Z,20.48
2019-04-29T11:57:40.122Z,20.60
2019-04-29T12:00:33.383Z,20.78
2019-04-29T12:03:08.203Z,20.84
2019-04-29T12:05:45.029Z,21.05
2019-04-29T12:08:17.044Z,21.21
2019-04-29T12:11:05.688Z,21.33
2019-04-29T12:13:31.489Z,21.35
2019-04-29T12:16:10.975Z,21.46
2019-04-29T12:18:51.309Z,21.27
2019-04-29T12:21:30.586Z,20.95
2019-04-29T12:24:04.430Z,20.66
2019-04-29T12:26:42.974Z,20.63
2019-04-29T12:29:08.725Z,20.68
2019-04-29T12:32:05.660Z,20.80
2019-04-29T12:35:04.687Z,20.97
2019-04-29T12:38:00.666Z,20.91
2019-04-29T12:40:50.212Z,20.93
2019-04-29T12:43:36.382Z,20.92
2019-04-29T12:46:17.676Z,20.92
2019-04-29T12:48:49.010Z,20.88
2019-04-29T12:51:20.309Z,20.46
2019-04-29T12:53:51.605Z,20.32
2019-04-29T12:56:33.107Z,20.34
2019-04-29T12:59:04.767Z,20.45
2019-04-29T13:02:09.805Z,20.37
2019-04-29T13:04:58.641Z,20.39
2019-04-29T13:07:43.121Z,20.85
2019-04-29T13:10:22.752Z,21.39
2019-04-29T13:12:54.050Z,21.51
2019-04-29T13:15:43.825Z,21.32
2019-04-29T13:18:23.848Z,21.59
2019-04-29T13:21:09.153Z,21.51
2019-04-29T13:23:36.011Z,21.40
2019-04-29T13:26:01.149Z,21.28
2019-04-29T13:28:34.603Z,21.22
2019-04-29T13:31:05.488Z,21.09
2019-04-29T13:33:36.776Z,20.95
2019-04-29T13:36:08.354Z,20.90
2019-04-29T13:38:39.679Z,20.96
2019-04-29T13:41:14.095Z,20.82
2019-04-29T13:43:43.956Z,20.78
2019-04-29T13:46:31.175Z,20.55
2019-04-29T13:49:13.555Z,20.48
2019-04-29T13:51:42.419Z,20.38
2019-04-29T13:54:13.734Z,20.19
2019-04-29T13:56:55.312Z,20.09
2019-04-29T13:59:23.533Z,20.00
2019-04-29T14:02:12.599Z,20.06
2019-04-29T14:04:48.193Z,20.25
2019-04-29T14:07:19.940Z,20.03
2019-04-29T14:09:51.223Z,19.85
2019-04-29T14:14:58.439Z,19.70
2019-04-29T14:17:31.775Z,19.69
2019-04-29T14:18:53.507Z,19.71
2019-04-29T14:20:01.533Z,19.65
2019-04-29T14:22:32.800Z,19.65
2019-04-29T14:25:04.515Z,19.53
2019-04-29T14:27:35.834Z,19.49
2019-04-29T14:30:13.707Z,19.41
2019-04-29T14:32:46.937Z,19.34
2019-04-29T14:35:47.636Z,19.23
2019-04-29T14:38:16.588Z,19.19
2019-04-29T14:40:47.913Z,19.03
2019-04-29T14:43:36.547Z,18.96
2019-04-29T14:46:16.784Z,18.88
2019-04-29T14:48:52.619Z,18.80
2019-04-29T14:51:27.933Z,18.73
2019-04-29T14:54:00.972Z,18.68
2019-04-29T14:56:29.967Z,18.63
2019-04-29T14:59:06.856Z,18.38
2019-04-29T15:01:41.985Z,18.38
2019-04-29T15:04:19.069Z,18.38
2019-04-29T15:06:48.285Z,18.40
2019-04-29T15:09:20.064Z,18.32
2019-04-29T15:11:59.641Z,18.21
2019-04-29T15:14:48.603Z,17.78
2019-04-29T15:17:44.814Z,17.71
2019-04-29T15:20:29.878Z,17.65
2019-04-29T15:22:58.013Z,17.68
2019-04-29T15:25:29.295Z,17.64
2019-04-29T15:28:00.605Z,17.69
2019-04-29T15:30:36.612Z,17.61
2019-04-29T15:33:04.908Z,17.49
2019-04-29T15:35:36.229Z,17.37
2019-04-29T15:38:07.570Z,17.13
2019-04-29T15:40:42.941Z,17.14
2019-04-29T15:43:11.899Z,16.97
2019-04-29T15:45:43.211Z,16.83
2019-04-29T15:48:14.512Z,16.85
2019-04-29T15:50:45.820Z,16.89
2019-04-29T15:53:17.142Z,16.90
2019-04-29T15:55:48.476Z,16.91
2019-04-29T15:58:22.704Z,16.79
2019-04-29T16:00:52.890Z,16.71
2019-04-29T16:03:24.265Z,16.60
2019-04-29T16:06:20.778Z,16.64
2019-04-29T16:08:59.352Z,16.56
2019-04-29T16:11:55.457Z,16.44
2019-04-29T16:14:26.758Z,16.36
2019-04-29T16:16:58.051Z,16.20
2019-04-29T16:19:29.384Z,16.17
2019-04-29T16:22:00.690Z,16.08
2019-04-29T16:24:37.448Z,16.06
2019-04-29T16:27:09.128Z,16.05
2019-04-29T16:29:39.019Z,15.93
2019-04-29T16:32:12.407Z,15.91
2019-04-29T16:34:44.608Z,15.81
2019-04-29T16:37:19.382Z,15.72
2019-04-29T16:39:52.907Z,15.70
2019-04-29T16:42:28.619Z,15.53
2019-04-29T16:44:59.889Z,15.45
2019-04-29T16:47:31.768Z,15.32
2019-04-29T16:50:04.729Z,15.24
2019-04-29T16:52:36.141Z,15.18
2019-04-29T16:55:07.503Z,15.12
2019-04-29T16:57:38.831Z,15.05
2019-04-29T17:00:14.742Z,15.04
2019-04-29T17:02:45.375Z,15.01
2019-04-29T17:05:16.795Z,15.01
2019-04-29T17:07:48.297Z,14.85
2019-04-29T17:10:44.864Z,14.79
2019-04-29T17:13:23.336Z,14.75
2019-04-29T17:15:52.033Z,14.69
2019-04-29T17:18:22.482Z,14.65
2019-04-29T17:20:53.787Z,14.61
2019-04-29T17:23:25.131Z,14.62
2019-04-29T17:25:56.467Z,14.61
2019-04-29T17:28:37.276Z,14.62
2019-04-29T17:31:26.506Z,14.55
2019-04-29T17:34:01.583Z,14.49
2019-04-29T17:36:33.157Z,14.40
2019-04-29T17:39:04.645Z,14.31
2019-04-29T17:41:36.070Z,14.26
2019-04-29T17:44:35.205Z,14.29
2019-04-29T17:47:24.182Z,14.27
2019-04-29T17:50:12.903Z,14.34
2019-04-29T17:52:44.390Z,14.22
2019-04-29T17:55:38.089Z,14.19
2019-04-29T17:58:10.131Z,14.31
2019-04-29T18:01:06.633Z,14.25
2019-04-29T18:04:02.994Z,14.18
2019-04-29T18:06:48.124Z,14.12
2019-04-29T18:09:32.325Z,14.05
2019-04-29T18:12:10.195Z,13.94
2019-04-29T18:14:42.007Z,13.95
2019-04-29T18:17:24.132Z,13.87
2019-04-29T18:20:00.851Z,13.83
2019-04-29T18:23:02.258Z,13.75
2019-04-29T18:25:41.013Z,13.74
2019-04-29T18:28:12.597Z,13.75
2019-04-29T18:30:45.016Z,13.73
2019-04-29T18:33:19.009Z,13.74
2019-04-29T18:35:49.959Z,13.71
2019-04-29T18:38:21.633Z,13.76
2019-04-29T18:40:53.265Z,13.70
2019-04-29T18:43:26.638Z,13.64
2019-04-29T18:45:59.304Z,13.66
2019-04-29T18:48:30.970Z,13.57
2019-04-29T18:51:02.624Z,13.52
2019-04-29T18:53:35.404Z,13.39
2019-04-29T18:56:07.132Z,13.45
2019-04-29T18:58:42.166Z,13.48
2019-04-29T19:01:11.992Z,13.39
2019-04-29T19:03:59.622Z,13.38
2019-04-29T19:06:31.260Z,13.31
2019-04-29T19:09:02.971Z,13.29
2019-04-29T19:11:35.200Z,13.23
2019-04-29T19:14:06.963Z,13.17
2019-04-29T19:16:39.568Z,13.21
2019-04-29T19:19:11.281Z,13.14
2019-04-29T19:21:42.932Z,13.08
2019-04-29T19:24:16.209Z,13.10
2019-04-29T19:26:47.929Z,13.12
2019-04-29T19:29:19.626Z,13.07
2019-04-29T19:31:51.345Z,13.00
2019-04-29T19:34:23.007Z,12.98
2019-04-29T19:36:59.197Z,12.85
2019-04-29T19:39:27.835Z,12.83
2019-04-29T19:41:59.440Z,12.75
2019-04-29T19:44:33.394Z,12.69
2019-04-29T19:47:04.187Z,12.68
2019-04-29T19:49:36.030Z,12.65
2019-04-29T19:52:08.731Z,12.66
2019-04-29T19:54:40.487Z,12.61
2019-04-29T19:57:11.924Z,12.61
2019-04-29T19:59:50.991Z,12.58
2019-04-29T20:02:17.299Z,12.53
2019-04-29T20:05:01.010Z,12.67
2019-04-29T20:07:40.857Z,12.55
2019-04-29T20:10:09.865Z,12.46
2019-04-29T20:12:41.370Z,12.51
2019-04-29T20:15:16.423Z,12.47
2019-04-29T20:18:19.729Z,12.38
2019-04-29T20:20:52.602Z,12.31
2019-04-29T20:23:26.179Z,12.28
2019-04-29T20:26:12.557Z,12.23
2019-04-29T20:28:30.391Z,12.09
2019-04-29T20:31:15.292Z,12.08
2019-04-29T20:33:35.039Z,12.00
2019-04-29T20:36:06.801Z,12.02
2019-04-29T20:38:39.049Z,12.00
2019-04-29T20:41:13.122Z,11.93
2019-04-29T20:43:45.907Z,11.96
2019-04-29T20:46:17.990Z,11.86
2019-04-29T20:48:54.248Z,11.81
2019-04-29T20:51:23.180Z,11.89
2019-04-29T20:54:01.828Z,11.91
2019-04-29T20:56:35.246Z,11.89
2019-04-29T20:59:11.349Z,11.88
2019-04-29T21:01:43.301Z,11.87
2019-04-29T21:04:29.754Z,11.79
2019-04-29T21:06:59.234Z,11.78
2019-04-29T21:09:22.083Z,11.79
2019-04-29T21:12:15.723Z,11.93
2019-04-29T21:14:51.759Z,11.84
2019-04-29T21:17:31.271Z,11.75
2019-04-29T21:19:56.580Z,11.73
2019-04-29T21:22:27.893Z,11.75
2019-04-29T21:24:59.302Z,11.82
2019-04-29T21:27:30.579Z,11.75
2019-04-29T21:30:01.898Z,11.73
2019-04-29T21:32:35.376Z,11.78
2019-04-29T21:35:17.194Z,11.83
2019-04-29T21:37:58.366Z,11.69
2019-04-29T21:40:35.518Z,11.68
2019-04-29T21:43:13.453Z,11.66
2019-04-29T21:45:44.981Z,11.63
2019-04-29T21:48:16.468Z,11.65
2019-04-29T21:50:47.827Z,11.63
2019-04-29T21:53:19.119Z,11.69
2019-04-29T21:55:50.403Z,11.64
2019-04-29T21:58:21.742Z,11.62
2019-04-29T22:00:55.926Z,11.62
2019-04-29T22:03:28.008Z,11.61
2019-04-29T22:06:00.446Z,11.66
2019-04-29T22:08:31.984Z,11.63
2019-04-29T22:11:05.001Z,11.58
2019-04-29T22:13:38.983Z,11.62
2019-04-29T22:16:11.574Z,11.59
2019-04-29T22:18:44.630Z,11.66
2019-04-29T22:21:21.936Z,11.63
2019-04-29T22:23:51.078Z,11.53
2019-04-29T22:26:23.247Z,11.52
2019-04-29T22:29:01.822Z,11.53
2019-04-29T22:31:34.110Z,11.56
2019-04-29T22:34:01.547Z,11.44
2019-04-29T22:36:32.887Z,11.47
2019-04-29T22:39:06.160Z,11.37
2019-04-29T22:42:02.380Z,11.32
2019-04-29T22:44:35.896Z,11.29
2019-04-29T22:47:07.084Z,11.29
2019-04-29T22:49:38.415Z,11.28
2019-04-29T22:52:09.709Z,11.25
2019-04-29T22:54:41.013Z,11.28
2019-04-29T22:57:12.317Z,11.25
2019-04-29T22:59:44.933Z,11.25
2019-04-29T23:02:20.063Z,11.23
2019-04-29T23:04:53.709Z,11.22
2019-04-29T23:07:23.467Z,11.21
2019-04-29T23:09:55.523Z,11.23
2019-04-29T23:12:27.839Z,11.26
2019-04-29T23:14:59.101Z,11.25
2019-04-29T23:17:30.427Z,11.25
2019-04-29T23:20:09.507Z,11.27
2019-04-29T23:22:52.755Z,11.25
2019-04-29T23:25:35.461Z,11.22
2019-04-29T23:28:06.994Z,11.26
2019-04-29T23:30:38.277Z,11.26
2019-04-29T23:33:09.599Z,11.26
2019-04-29T23:35:41.076Z,11.30
2019-04-29T23:38:12.378Z,11.28
2019-04-29T23:40:43.806Z,11.30
2019-04-29T23:43:15.766Z,11.39
2019-04-29T23:45:47.117Z,11.32
2019-04-29T23:48:19.941Z,11.28
2019-04-29T23:50:54.700Z,11.40
2019-04-29T23:53:25.231Z,11.32
2019-04-29T23:56:00.134Z,11.29
2019-04-29T23:58:46.800Z,11.32
